createdAt,value
2019-06-27T00:00:48.420Z,21.17
2019-06-27T00:01:48.432Z,21.17
2019-06-27T00:02:48.457Z,21.19
2019-06-27T00:03:48.384Z,21.19
2019-06-27T00:04:48.372Z,21.22
2019-06-27T00:05:48.362Z,21.19
2019-06-27T00:06:48.379Z,21.27
2019-06-27T00:07:48.343Z,21.19
2019-06-27T00:08:48.334Z,21.22
2019-06-27T00:09:48.318Z,21.25
2019-06-27T00:10:48.308Z,21.13
2019-06-27T00:11:48.325Z,21.07
2019-06-27T00:12:48.284Z,21.13
2019-06-27T00:13:48.274Z,21.09
2019-06-27T00:14:48.263Z,21.03
2019-06-27T00:15:48.255Z,20.99
2019-06-27T00:16:48.271Z,20.98
2019-06-27T00:17:48.229Z,20.97
2019-06-27T00:18:48.222Z,20.89
2019-06-27T00:19:48.208Z,20.92
2019-06-27T00:20:48.198Z,20.92
2019-06-27T00:21:48.215Z,20.94
2019-06-27T00:22:48.174Z,20.92
2019-06-27T00:23:48.166Z,20.84
2019-06-27T00:24:48.156Z,20.88
2019-06-27T00:25:48.173Z,20.79
2019-06-27T00:26:57.326Z,20.84
2019-06-27T00:27:49.119Z,20.85
2019-06-27T00:28:48.111Z,20.84
2019-06-27T00:29:48.099Z,20.73
2019-06-27T00:30:48.089Z,20.70
2019-06-27T00:31:48.077Z,20.80
2019-06-27T00:32:48.097Z,20.72
2019-06-27T00:33:48.056Z,20.74
2019-06-27T00:34:48.046Z,20.85
2019-06-27T00:35:48.033Z,20.82
2019-06-27T00:36:48.024Z,20.72
2019-06-27T00:37:48.040Z,20.62
2019-06-27T00:38:48.003Z,20.55
2019-06-27T00:39:47.990Z,20.58
2019-06-27T00:40:47.980Z,20.61
2019-06-27T00:41:47.970Z,20.57
2019-06-27T00:42:47.983Z,20.61
2019-06-27T00:43:47.946Z,20.51
2019-06-27T00:44:47.935Z,20.39
2019-06-27T00:45:47.927Z,20.54
2019-06-27T00:46:47.915Z,20.39
2019-06-27T00:47:47.930Z,20.47
2019-06-27T00:48:47.892Z,20.51
2019-06-27T00:49:47.882Z,20.52
2019-06-27T00:50:47.873Z,20.41
2019-06-27T00:51:47.860Z,20.31
2019-06-27T00:52:47.876Z,20.26
2019-06-27T00:53:47.838Z,20.26
2019-06-27T00:54:47.827Z,20.31
2019-06-27T00:55:47.819Z,20.14
2019-06-27T00:56:47.806Z,20.24
2019-06-27T00:57:47.821Z,20.24
2019-06-27T00:58:47.784Z,20.21
2019-06-27T00:59:47.772Z,20.16
2019-06-27T01:00:47.781Z,20.08
2019-06-27T01:01:47.753Z,20.18
2019-06-27T01:02:47.768Z,19.99
2019-06-27T01:03:47.730Z,20.03
2019-06-27T01:04:47.720Z,20.08
2019-06-27T01:05:47.709Z,20.06
2019-06-27T01:06:47.705Z,19.99
2019-06-27T01:07:47.735Z,20.03
2019-06-27T01:08:47.732Z,19.96
2019-06-27T01:09:47.665Z,19.88
2019-06-27T01:10:47.655Z,19.96
2019-06-27T01:11:47.642Z,19.87
2019-06-27T01:12:47.656Z,19.80
2019-06-27T01:13:47.620Z,19.68
2019-06-27T01:14:47.611Z,19.74
2019-06-27T01:15:47.603Z,19.87
2019-06-27T01:16:47.588Z,19.84
2019-06-27T01:17:47.604Z,19.74
2019-06-27T01:18:47.566Z,19.83
2019-06-27T01:19:47.555Z,19.73
2019-06-27T01:20:47.544Z,19.80
2019-06-27T01:21:47.534Z,19.76
2019-06-27T01:22:47.552Z,19.73
2019-06-27T01:23:47.514Z,19.68
2019-06-27T01:24:47.506Z,19.73
2019-06-27T01:25:47.491Z,19.71
2019-06-27T01:26:47.479Z,19.68
2019-06-27T01:27:47.499Z,19.74
2019-06-27T01:28:47.458Z,19.66
2019-06-27T01:29:47.447Z,19.56
2019-06-27T01:30:47.436Z,19.56
2019-06-27T01:31:47.425Z,19.56
2019-06-27T01:32:47.444Z,19.56
2019-06-27T01:33:47.406Z,19.46
2019-06-27T01:34:47.393Z,19.43
2019-06-27T01:35:47.383Z,19.46
2019-06-27T01:36:47.371Z,19.40
2019-06-27T01:37:47.386Z,19.55
2019-06-27T01:38:47.367Z,19.40
2019-06-27T01:39:47.372Z,19.36
2019-06-27T01:40:47.355Z,19.33
2019-06-27T01:41:47.319Z,19.43
2019-06-27T01:42:47.349Z,19.56
2019-06-27T01:43:47.297Z,19.55
2019-06-27T01:44:47.283Z,19.54
2019-06-27T01:45:47.273Z,19.50
2019-06-27T01:46:47.263Z,19.41
2019-06-27T01:47:47.279Z,19.33
2019-06-27T01:48:47.243Z,19.26
2019-06-27T01:49:47.229Z,19.21
2019-06-27T01:50:47.217Z,19.16
2019-06-27T01:51:47.210Z,19.06
2019-06-27T01:52:47.221Z,19.16
2019-06-27T01:53:47.184Z,19.08
2019-06-27T01:54:47.194Z,19.10
2019-06-27T01:55:47.161Z,19.07
2019-06-27T01:56:47.187Z,18.99
2019-06-27T01:57:47.479Z,18.98
2019-06-27T01:58:47.128Z,18.95
2019-06-27T01:59:47.116Z,18.99
2019-06-27T02:00:47.108Z,18.95
2019-06-27T02:01:47.094Z,18.98
2019-06-27T02:02:47.112Z,18.99
2019-06-27T02:03:47.094Z,18.98
2019-06-27T02:04:47.061Z,18.85
2019-06-27T02:05:47.051Z,18.90
2019-06-27T02:06:47.039Z,18.90
2019-06-27T02:07:47.059Z,18.81
2019-06-27T02:08:47.018Z,18.80
2019-06-27T02:09:47.006Z,18.76
2019-06-27T02:10:46.994Z,18.75
2019-06-27T02:11:46.984Z,18.62
2019-06-27T02:12:47.008Z,18.65
2019-06-27T02:13:46.962Z,18.66
2019-06-27T02:14:46.951Z,18.58
2019-06-27T02:15:46.939Z,18.62
2019-06-27T02:16:46.930Z,18.45
2019-06-27T02:17:46.947Z,18.52
2019-06-27T02:18:46.905Z,18.48
2019-06-27T02:19:46.899Z,18.51
2019-06-27T02:20:46.883Z,18.44
2019-06-27T02:21:46.873Z,18.48
2019-06-27T02:22:46.890Z,18.41
2019-06-27T02:23:46.850Z,18.48
2019-06-27T02:24:46.838Z,18.37
2019-06-27T02:25:46.826Z,18.47
2019-06-27T02:26:46.817Z,18.39
2019-06-27T02:28:02.577Z,18.48
2019-06-27T02:28:47.796Z,18.48
2019-06-27T02:29:46.784Z,18.48
2019-06-27T02:30:46.782Z,18.42
2019-06-27T02:31:46.759Z,18.41
2019-06-27T02:32:46.777Z,18.33
2019-06-27T02:33:46.739Z,18.36
2019-06-27T02:34:46.730Z,18.37
2019-06-27T02:35:46.720Z,18.30
2019-06-27T02:36:46.703Z,18.33
2019-06-27T02:37:46.741Z,18.33
2019-06-27T02:38:46.683Z,18.27
2019-06-27T02:39:46.683Z,18.26
2019-06-27T02:40:46.659Z,18.21
2019-06-27T02:41:46.650Z,18.35
2019-06-27T02:42:46.664Z,18.33
2019-06-27T02:43:46.637Z,18.35
2019-06-27T02:44:46.616Z,18.15
2019-06-27T02:45:46.673Z,18.32
2019-06-27T02:46:46.594Z,18.35
2019-06-27T02:47:46.615Z,18.17
2019-06-27T02:48:46.572Z,18.26
2019-06-27T02:49:49.942Z,18.32
2019-06-27T02:50:46.567Z,18.35
2019-06-27T02:51:46.537Z,18.35
2019-06-27T02:52:46.554Z,18.29
2019-06-27T02:53:46.524Z,18.26
2019-06-27T02:54:46.505Z,18.18
2019-06-27T02:55:46.497Z,18.17
2019-06-27T02:56:46.483Z,18.18
2019-06-27T02:57:46.501Z,18.10
2019-06-27T02:58:46.463Z,18.07
2019-06-27T02:59:46.451Z,18.00
2019-06-27T03:00:46.441Z,18.02
2019-06-27T03:01:46.427Z,18.02
2019-06-27T03:02:46.456Z,17.96
2019-06-27T03:03:46.404Z,17.99
2019-06-27T03:04:46.392Z,17.95
2019-06-27T03:05:46.387Z,17.87
2019-06-27T03:06:46.372Z,17.82
2019-06-27T03:07:46.362Z,17.81
2019-06-27T03:08:46.375Z,17.77
2019-06-27T03:09:46.336Z,17.78
2019-06-27T03:10:46.327Z,17.70
2019-06-27T03:11:46.322Z,17.64
2019-06-27T03:12:46.304Z,17.74
2019-06-27T03:13:46.328Z,17.77
2019-06-27T03:14:46.283Z,17.77
2019-06-27T03:15:46.271Z,17.77
2019-06-27T03:16:46.261Z,17.66
2019-06-27T03:17:46.250Z,17.68
2019-06-27T03:18:46.265Z,17.66
2019-06-27T03:19:46.233Z,17.70
2019-06-27T03:20:46.220Z,17.64
2019-06-27T03:21:46.236Z,17.78
2019-06-27T03:22:46.194Z,17.68
2019-06-27T03:23:46.210Z,17.79
2019-06-27T03:24:46.172Z,17.77
2019-06-27T03:25:46.162Z,17.68
2019-06-27T03:26:46.149Z,17.54
2019-06-27T03:27:46.139Z,17.41
2019-06-27T03:28:52.697Z,17.36
2019-06-27T03:29:47.117Z,17.40
2019-06-27T03:30:46.106Z,17.44
2019-06-27T03:31:46.098Z,17.51
2019-06-27T03:32:46.095Z,17.56
2019-06-27T03:33:46.284Z,17.56
2019-06-27T03:34:46.062Z,17.66
2019-06-27T03:35:46.067Z,17.59
2019-06-27T03:36:46.042Z,17.70
2019-06-27T03:37:46.032Z,17.66
2019-06-27T03:38:46.046Z,17.62
2019-06-27T03:39:46.007Z,17.55
2019-06-27T03:40:46.002Z,17.55
2019-06-27T03:41:45.990Z,17.48
2019-06-27T03:42:45.975Z,17.48
2019-06-27T03:43:45.990Z,17.54
2019-06-27T03:44:45.952Z,17.44
2019-06-27T03:45:45.941Z,17.46
2019-06-27T03:46:45.934Z,17.46
2019-06-27T03:47:45.919Z,17.52
2019-06-27T03:48:45.938Z,17.48
2019-06-27T03:49:45.905Z,17.54
2019-06-27T03:50:45.888Z,17.49
2019-06-27T03:51:45.874Z,17.52
2019-06-27T03:52:45.867Z,17.52
2019-06-27T03:53:45.894Z,17.54
2019-06-27T03:54:45.842Z,17.55
2019-06-27T03:55:45.832Z,17.58
2019-06-27T03:56:45.823Z,17.58
2019-06-27T03:57:45.818Z,17.63
2019-06-27T03:58:45.823Z,17.59
2019-06-27T03:59:45.796Z,17.62
2019-06-27T04:00:45.777Z,17.59
2019-06-27T04:01:45.766Z,17.58
2019-06-27T04:02:45.755Z,17.52
2019-06-27T04:03:45.772Z,17.54
2019-06-27T04:04:45.733Z,17.68
2019-06-27T04:05:45.725Z,17.58
2019-06-27T04:06:45.785Z,17.71
2019-06-27T04:07:45.698Z,17.87
2019-06-27T04:08:45.716Z,17.86
2019-06-27T04:09:45.678Z,17.87
2019-06-27T04:10:45.667Z,17.82
2019-06-27T04:11:45.658Z,17.87
2019-06-27T04:12:45.643Z,17.78
2019-06-27T04:13:45.659Z,17.72
2019-06-27T04:14:45.623Z,17.78
2019-06-27T04:15:45.609Z,17.78
2019-06-27T04:16:48.958Z,17.87
2019-06-27T04:17:45.589Z,17.89
2019-06-27T04:18:45.602Z,17.90
2019-06-27T04:19:45.579Z,17.78
2019-06-27T04:20:45.556Z,17.72
2019-06-27T04:21:45.546Z,17.82
2019-06-27T04:22:45.539Z,17.95
2019-06-27T04:23:45.550Z,18.11
2019-06-27T04:24:45.515Z,18.02
2019-06-27T04:25:45.506Z,18.17
2019-06-27T04:26:45.494Z,18.25
2019-06-27T04:27:45.479Z,18.23
2019-06-27T04:28:45.492Z,18.23
2019-06-27T04:29:45.459Z,18.26
2019-06-27T04:30:45.450Z,18.29
2019-06-27T04:31:45.437Z,18.35
2019-06-27T04:32:45.427Z,18.35
2019-06-27T04:33:45.438Z,18.44
2019-06-27T04:34:45.403Z,18.37
2019-06-27T04:35:45.396Z,18.47
2019-06-27T04:36:45.382Z,18.48
2019-06-27T04:37:45.373Z,18.54
2019-06-27T04:38:45.384Z,18.62
2019-06-27T04:39:45.346Z,18.51
2019-06-27T04:40:45.337Z,18.45
2019-06-27T04:41:45.327Z,18.41
2019-06-27T04:42:45.315Z,18.50
2019-06-27T04:43:45.332Z,18.51
2019-06-27T04:44:45.295Z,18.48
2019-06-27T04:45:45.282Z,18.44
2019-06-27T04:46:45.272Z,18.45
2019-06-27T04:47:45.262Z,18.48
2019-06-27T04:48:45.276Z,18.54
2019-06-27T04:49:45.244Z,18.66
2019-06-27T04:50:45.230Z,18.67
2019-06-27T04:51:45.220Z,18.72
2019-06-27T04:52:45.209Z,18.69
2019-06-27T04:53:45.222Z,18.57
2019-06-27T04:54:45.190Z,18.55
2019-06-27T04:55:45.180Z,18.73
2019-06-27T04:56:45.166Z,18.80
2019-06-27T04:57:45.157Z,18.87
2019-06-27T04:58:45.170Z,18.67
2019-06-27T04:59:53.138Z,18.73
2019-06-27T05:00:46.123Z,18.72
2019-06-27T05:01:45.111Z,18.57
2019-06-27T05:02:45.104Z,18.58
2019-06-27T05:03:45.115Z,18.67
2019-06-27T05:04:45.078Z,18.73
2019-06-27T05:05:45.069Z,18.87
2019-06-27T05:06:45.059Z,19.00
2019-06-27T05:07:45.049Z,19.18
2019-06-27T05:08:45.062Z,19.22
2019-06-27T05:09:45.024Z,19.21
2019-06-27T05:10:45.013Z,19.26
2019-06-27T05:11:45.004Z,19.21
2019-06-27T05:12:44.994Z,19.16
2019-06-27T05:13:45.004Z,19.21
2019-06-27T05:14:44.970Z,19.26
2019-06-27T05:15:44.985Z,19.40
2019-06-27T05:16:44.949Z,19.47
2019-06-27T05:17:44.936Z,19.43
2019-06-27T05:18:44.950Z,19.31
2019-06-27T05:19:44.913Z,19.06
2019-06-27T05:20:44.903Z,19.19
2019-06-27T05:21:44.894Z,19.14
2019-06-27T05:22:44.882Z,18.85
2019-06-27T05:23:44.896Z,18.75
2019-06-27T05:24:44.861Z,18.87
2019-06-27T05:25:44.851Z,18.78
2019-06-27T05:26:44.839Z,18.88
2019-06-27T05:27:44.851Z,18.94
2019-06-27T05:28:44.842Z,19.13
2019-06-27T05:29:44.808Z,19.19
2019-06-27T05:30:44.802Z,19.28
2019-06-27T05:31:44.787Z,19.26
2019-06-27T05:32:44.776Z,19.32
2019-06-27T05:33:44.791Z,19.31
2019-06-27T05:34:44.846Z,19.33
2019-06-27T05:35:44.744Z,19.43
2019-06-27T05:36:44.732Z,19.29
2019-06-27T05:37:44.742Z,19.28
2019-06-27T05:38:44.734Z,19.28
2019-06-27T05:39:44.705Z,19.43
2019-06-27T05:40:44.693Z,19.55
2019-06-27T05:41:44.686Z,19.73
2019-06-27T05:42:44.689Z,19.83
2019-06-27T05:43:44.683Z,19.88
2019-06-27T05:44:44.648Z,19.99
2019-06-27T05:45:44.637Z,19.95
2019-06-27T05:46:44.647Z,19.94
2019-06-27T05:47:44.625Z,19.94
2019-06-27T05:48:44.635Z,19.84
2019-06-27T05:49:44.597Z,19.94
2019-06-27T05:50:44.585Z,20.03
2019-06-27T05:51:44.585Z,20.16
2019-06-27T05:52:44.565Z,20.24
2019-06-27T05:53:45.718Z,20.16
2019-06-27T05:54:44.540Z,20.14
2019-06-27T05:55:44.536Z,20.24
2019-06-27T05:56:44.525Z,20.32
2019-06-27T05:57:44.513Z,20.23
2019-06-27T05:58:44.566Z,20.18
2019-06-27T05:59:44.528Z,20.23
2019-06-27T06:00:44.516Z,20.29
2019-06-27T06:01:44.506Z,20.28
2019-06-27T06:02:44.472Z,20.28
2019-06-27T06:03:44.461Z,20.36
2019-06-27T06:04:44.459Z,20.50
2019-06-27T06:05:44.434Z,20.76
2019-06-27T06:06:44.444Z,20.74
2019-06-27T06:07:44.424Z,20.80
2019-06-27T06:08:44.415Z,20.73
2019-06-27T06:09:44.380Z,20.85
2019-06-27T06:10:44.369Z,20.88
2019-06-27T06:11:44.364Z,20.97
2019-06-27T06:12:44.376Z,20.99
2019-06-27T06:13:44.341Z,21.07
2019-06-27T06:14:44.330Z,21.06
2019-06-27T06:15:44.317Z,20.98
2019-06-27T06:16:44.387Z,21.03
2019-06-27T06:17:44.378Z,21.07
2019-06-27T06:18:44.287Z,21.13
2019-06-27T06:19:44.298Z,21.14
2019-06-27T06:20:44.277Z,21.09
2019-06-27T06:21:44.257Z,21.14
2019-06-27T06:22:44.338Z,21.03
2019-06-27T06:23:44.246Z,20.72
2019-06-27T06:24:44.257Z,20.74
2019-06-27T06:25:44.449Z,20.76
2019-06-27T06:26:44.214Z,20.77
2019-06-27T06:27:44.217Z,20.69
2019-06-27T06:28:44.192Z,20.91
2019-06-27T06:29:44.171Z,20.58
2019-06-27T06:30:45.254Z,20.24
2019-06-27T06:31:44.155Z,20.41
2019-06-27T06:32:44.167Z,20.35
2019-06-27T06:33:44.159Z,20.51
2019-06-27T06:34:44.125Z,20.32
2019-06-27T06:35:44.154Z,20.52
2019-06-27T06:36:44.101Z,20.79
2019-06-27T06:37:44.111Z,20.97
2019-06-27T06:38:44.077Z,21.10
2019-06-27T06:39:44.073Z,20.89
2019-06-27T06:40:44.055Z,20.97
2019-06-27T06:41:44.047Z,20.95
2019-06-27T06:42:44.057Z,20.82
2019-06-27T06:43:44.027Z,20.69
2019-06-27T06:44:44.018Z,20.77
2019-06-27T06:45:44.007Z,20.70
2019-06-27T06:46:43.999Z,20.72
2019-06-27T06:47:44.061Z,20.97
2019-06-27T06:48:43.988Z,21.19
2019-06-27T06:49:43.963Z,21.43
2019-06-27T06:50:43.953Z,21.53
2019-06-27T06:51:43.954Z,21.47
2019-06-27T06:52:43.966Z,21.47
2019-06-27T06:53:43.922Z,21.53
2019-06-27T06:54:43.910Z,21.27
2019-06-27T06:55:43.905Z,21.27
2019-06-27T06:56:43.892Z,21.31
2019-06-27T06:57:43.929Z,21.40
2019-06-27T06:58:43.868Z,21.47
2019-06-27T06:59:43.860Z,21.42
2019-06-27T07:00:56.997Z,21.01
2019-06-27T07:01:45.838Z,20.87
2019-06-27T07:02:43.849Z,20.94
2019-06-27T07:03:43.889Z,21.09
2019-06-27T07:04:43.805Z,21.17
2019-06-27T07:05:43.795Z,21.40
2019-06-27T07:06:43.805Z,21.61
2019-06-27T07:07:43.797Z,21.80
2019-06-27T07:08:43.763Z,22.03
2019-06-27T07:09:43.756Z,22.17
2019-06-27T07:10:43.773Z,22.15
2019-06-27T07:11:43.736Z,21.94
2019-06-27T07:12:43.811Z,22.14
2019-06-27T07:13:43.720Z,22.15
2019-06-27T07:14:43.704Z,21.75
2019-06-27T07:15:43.704Z,21.77
2019-06-27T07:16:43.751Z,21.83
2019-06-27T07:17:43.801Z,22.02
2019-06-27T07:18:43.669Z,22.22
2019-06-27T07:19:43.650Z,22.28
2019-06-27T07:20:43.640Z,22.57
2019-06-27T07:21:44.169Z,22.37
2019-06-27T07:22:43.621Z,22.35
2019-06-27T07:23:43.638Z,22.52
2019-06-27T07:24:43.744Z,22.72
2019-06-27T07:25:43.592Z,22.83
2019-06-27T07:26:43.579Z,22.76
2019-06-27T07:27:43.570Z,22.43
2019-06-27T07:28:43.582Z,22.51
2019-06-27T07:29:43.549Z,22.47
2019-06-27T07:30:43.544Z,22.49
2019-06-27T07:31:43.537Z,22.57
2019-06-27T07:32:43.521Z,22.46
2019-06-27T07:33:43.531Z,22.33
2019-06-27T07:34:43.527Z,21.62
2019-06-27T07:35:43.486Z,21.69
2019-06-27T07:36:43.477Z,21.91
2019-06-27T07:37:43.499Z,21.94
2019-06-27T07:38:46.936Z,21.96
2019-06-27T07:39:43.450Z,21.94
2019-06-27T07:40:43.435Z,21.77
2019-06-27T07:41:43.424Z,21.86
2019-06-27T07:42:43.419Z,21.90
2019-06-27T07:43:43.437Z,22.02
2019-06-27T07:44:43.452Z,22.20
2019-06-27T07:45:43.383Z,22.30
2019-06-27T07:46:43.381Z,22.62
2019-06-27T07:47:43.365Z,22.65
2019-06-27T07:48:43.362Z,22.79
2019-06-27T07:49:43.368Z,22.60
2019-06-27T07:50:43.332Z,22.39
2019-06-27T07:51:43.323Z,22.40
2019-06-27T07:52:43.315Z,22.43
2019-06-27T07:53:43.302Z,22.61
2019-06-27T07:54:43.317Z,22.39
2019-06-27T07:55:43.285Z,22.28
2019-06-27T07:56:46.214Z,22.60
2019-06-27T07:57:43.261Z,22.76
2019-06-27T07:58:43.252Z,22.85
2019-06-27T07:59:43.262Z,22.79
2019-06-27T08:00:43.243Z,22.82
2019-06-27T08:01:43.225Z,22.94
2019-06-27T08:02:43.210Z,23.04
2019-06-27T08:03:43.200Z,22.88
2019-06-27T08:04:43.217Z,22.90
2019-06-27T08:05:43.185Z,22.91
2019-06-27T08:06:43.176Z,23.01
2019-06-27T08:07:43.171Z,23.17
2019-06-27T08:08:43.148Z,23.35
2019-06-27T08:09:43.160Z,23.15
2019-06-27T08:10:43.131Z,23.01
2019-06-27T08:11:43.118Z,23.27
2019-06-27T08:12:43.107Z,23.01
2019-06-27T08:13:43.100Z,22.79
2019-06-27T08:14:43.129Z,22.91
2019-06-27T08:15:43.112Z,22.92
2019-06-27T08:16:43.066Z,22.64
2019-06-27T08:17:43.065Z,22.61
2019-06-27T08:18:43.088Z,22.91
2019-06-27T08:19:43.037Z,23.13
2019-06-27T08:20:43.048Z,23.15
2019-06-27T08:21:43.016Z,23.19
2019-06-27T08:22:43.011Z,23.33
2019-06-27T08:23:43.043Z,23.31
2019-06-27T08:24:42.986Z,23.20
2019-06-27T08:25:43.053Z,23.43
2019-06-27T08:26:42.979Z,23.68
2019-06-27T08:27:43.049Z,23.84
2019-06-27T08:28:42.947Z,23.63
2019-06-27T08:29:42.964Z,23.57
2019-06-27T08:30:42.938Z,23.61
2019-06-27T08:31:51.412Z,23.61
2019-06-27T08:32:43.909Z,23.79
2019-06-27T08:33:42.902Z,23.95
2019-06-27T08:34:43.021Z,24.05
2019-06-27T08:35:42.874Z,24.12
2019-06-27T08:36:42.865Z,24.24
2019-06-27T08:37:42.857Z,24.24
2019-06-27T08:38:42.843Z,24.06
2019-06-27T08:39:42.928Z,24.13
2019-06-27T08:40:42.838Z,24.08
2019-06-27T08:41:42.815Z,24.30
2019-06-27T08:42:42.802Z,24.32
2019-06-27T08:43:42.794Z,24.46
2019-06-27T08:44:42.806Z,24.50
2019-06-27T08:45:42.770Z,24.58
2019-06-27T08:46:42.761Z,24.77
2019-06-27T08:47:42.821Z,24.67
2019-06-27T08:48:42.741Z,23.98
2019-06-27T08:49:42.758Z,23.91
2019-06-27T08:50:42.719Z,24.10
2019-06-27T08:51:42.710Z,24.22
2019-06-27T08:52:42.701Z,24.28
2019-06-27T08:53:42.689Z,24.37
2019-06-27T08:54:42.707Z,24.47
2019-06-27T08:55:42.675Z,24.68
2019-06-27T08:56:43.104Z,24.84
2019-06-27T08:57:42.649Z,24.98
2019-06-27T08:58:42.637Z,25.10
2019-06-27T08:59:42.651Z,25.21
2019-06-27T09:00:45.750Z,25.28
2019-06-27T09:01:42.639Z,25.30
2019-06-27T09:02:42.600Z,25.30
2019-06-27T09:03:42.653Z,25.14
2019-06-27T09:04:42.581Z,25.28
2019-06-27T09:05:42.565Z,25.21
2019-06-27T09:06:42.584Z,25.33
2019-06-27T09:07:42.546Z,25.43
2019-06-27T09:08:42.533Z,25.45
2019-06-27T09:09:42.526Z,25.58
2019-06-27T09:10:42.518Z,25.62
2019-06-27T09:11:42.526Z,25.20
2019-06-27T09:12:42.495Z,25.02
2019-06-27T09:13:42.503Z,24.88
2019-06-27T09:14:42.517Z,24.83
2019-06-27T09:15:42.556Z,24.81
2019-06-27T09:16:46.447Z,24.99
2019-06-27T09:17:42.516Z,24.67
2019-06-27T09:18:42.507Z,24.49
2019-06-27T09:19:44.162Z,24.62
2019-06-27T09:20:42.681Z,24.81
2019-06-27T09:21:43.264Z,24.55
2019-06-27T09:22:42.669Z,24.64
2019-06-27T09:23:42.387Z,24.69
2019-06-27T09:24:42.416Z,24.85
2019-06-27T09:25:42.543Z,24.87
2019-06-27T09:26:42.406Z,24.96
2019-06-27T09:27:42.513Z,24.96
2019-06-27T09:28:42.359Z,24.64
2019-06-27T09:29:42.393Z,24.57
2019-06-27T09:30:42.374Z,24.69
2019-06-27T09:31:42.320Z,24.78
2019-06-27T09:32:42.286Z,24.83
2019-06-27T09:33:42.320Z,24.76
2019-06-27T09:34:42.279Z,24.85
2019-06-27T09:35:42.258Z,25.14
2019-06-27T09:36:42.350Z,25.40
2019-06-27T09:37:42.239Z,25.47
2019-06-27T09:38:42.243Z,25.57
2019-06-27T09:39:42.214Z,25.67
2019-06-27T09:40:42.204Z,25.57
2019-06-27T09:41:42.264Z,25.54
2019-06-27T09:42:42.183Z,25.55
2019-06-27T09:43:42.175Z,25.54
2019-06-27T09:44:42.411Z,25.60
2019-06-27T09:45:42.154Z,25.72
2019-06-27T09:46:42.166Z,25.83
2019-06-27T09:47:42.134Z,25.91
2019-06-27T09:48:42.124Z,25.91
2019-06-27T09:49:42.185Z,25.85
2019-06-27T09:50:42.102Z,25.83
2019-06-27T09:51:42.146Z,25.92
2019-06-27T09:52:42.082Z,26.18
2019-06-27T09:53:42.127Z,26.25
2019-06-27T09:54:42.063Z,26.37
2019-06-27T09:55:42.068Z,26.43
2019-06-27T09:56:42.041Z,26.35
2019-06-27T09:57:42.161Z,26.10
2019-06-27T09:58:42.019Z,26.09
2019-06-27T09:59:42.009Z,26.48
2019-06-27T10:00:42.000Z,26.65
2019-06-27T10:01:41.990Z,26.66
2019-06-27T10:02:42.945Z,26.63
2019-06-27T10:03:41.969Z,26.50
2019-06-27T10:04:41.978Z,25.67
2019-06-27T10:05:41.951Z,25.80
2019-06-27T10:06:42.040Z,25.95
2019-06-27T10:07:41.984Z,25.92
2019-06-27T10:08:41.918Z,26.35
2019-06-27T10:09:41.907Z,26.82
2019-06-27T10:10:41.935Z,27.18
2019-06-27T10:11:41.891Z,27.54
2019-06-27T10:12:43.304Z,27.46
2019-06-27T10:13:41.869Z,27.29
2019-06-27T10:14:41.861Z,26.89
2019-06-27T10:15:41.862Z,26.29
2019-06-27T10:16:41.836Z,25.91
2019-06-27T10:17:41.851Z,26.07
2019-06-27T10:18:41.816Z,26.43
2019-06-27T10:19:41.805Z,26.48
2019-06-27T10:20:41.794Z,26.17
2019-06-27T10:21:41.783Z,26.13
2019-06-27T10:22:41.832Z,25.95
2019-06-27T10:23:41.788Z,26.23
2019-06-27T10:24:41.754Z,26.62
2019-06-27T10:25:41.745Z,26.89
2019-06-27T10:26:41.735Z,27.03
2019-06-27T10:27:41.802Z,26.81
2019-06-27T10:28:41.712Z,26.55
2019-06-27T10:29:41.702Z,26.54
2019-06-27T10:30:41.705Z,26.51
2019-06-27T10:31:41.700Z,27.06
2019-06-27T10:32:57.777Z,27.37
2019-06-27T10:33:42.661Z,27.62
2019-06-27T10:34:41.651Z,28.02
2019-06-27T10:35:41.689Z,28.34
2019-06-27T10:36:41.630Z,28.43
2019-06-27T10:37:41.620Z,28.48
2019-06-27T10:38:41.609Z,28.52
2019-06-27T10:39:41.614Z,28.44
2019-06-27T10:40:41.615Z,27.69
2019-06-27T10:41:41.580Z,27.37
2019-06-27T10:42:41.810Z,27.25
2019-06-27T10:43:41.561Z,27.50
2019-06-27T10:44:41.562Z,27.28
2019-06-27T10:45:41.567Z,27.14
2019-06-27T10:46:41.530Z,27.39
2019-06-27T10:47:41.557Z,27.72
2019-06-27T10:48:41.514Z,28.02
2019-06-27T10:49:41.500Z,28.24
2019-06-27T10:50:41.494Z,28.43
2019-06-27T10:51:41.477Z,28.51
2019-06-27T10:52:41.480Z,28.70
2019-06-27T10:53:41.482Z,29.05
2019-06-27T10:54:41.449Z,29.33
2019-06-27T10:55:41.446Z,29.51
2019-06-27T10:56:41.427Z,29.04
2019-06-27T10:57:41.416Z,28.66
2019-06-27T10:58:41.429Z,28.56
2019-06-27T10:59:41.414Z,28.39
2019-06-27T11:00:41.427Z,28.31
2019-06-27T11:01:41.390Z,28.19
2019-06-27T11:02:41.377Z,28.34
2019-06-27T11:03:41.379Z,28.02
2019-06-27T11:04:41.376Z,28.17
2019-06-27T11:05:41.360Z,28.17
2019-06-27T11:06:41.323Z,28.03
2019-06-27T11:07:41.393Z,28.06
2019-06-27T11:08:41.330Z,28.04
2019-06-27T11:09:41.295Z,27.99
2019-06-27T11:10:41.307Z,27.87
2019-06-27T11:11:41.272Z,27.99
2019-06-27T11:12:44.864Z,28.03
2019-06-27T11:13:57.652Z,27.81
2019-06-27T11:14:58.046Z,27.78
2019-06-27T11:15:42.240Z,27.96
2019-06-27T11:16:41.224Z,28.33
2019-06-27T11:17:41.221Z,28.59
2019-06-27T11:18:41.225Z,28.68
2019-06-27T11:19:52.063Z,28.29
2019-06-27T11:20:42.180Z,28.14
2019-06-27T11:21:41.173Z,28.14
2019-06-27T11:22:41.171Z,28.12
2019-06-27T11:23:41.195Z,28.19
2019-06-27T11:24:41.146Z,28.49
2019-06-27T11:25:41.134Z,28.88
2019-06-27T11:26:41.119Z,29.04
2019-06-27T11:27:41.115Z,29.60
2019-06-27T11:28:41.124Z,29.79
2019-06-27T11:29:41.086Z,29.89
2019-06-27T11:30:41.078Z,29.92
2019-06-27T11:31:41.071Z,29.71
2019-06-27T11:32:41.063Z,29.58
2019-06-27T11:33:41.071Z,29.34
2019-06-27T11:34:41.036Z,29.42
2019-06-27T11:35:41.027Z,29.63
2019-06-27T11:36:41.043Z,29.57
2019-06-27T11:37:41.005Z,29.26
2019-06-27T11:38:40.994Z,28.93
2019-06-27T11:39:40.986Z,28.68
2019-06-27T11:40:40.977Z,28.77
2019-06-27T11:41:41.001Z,29.26
2019-06-27T11:42:40.955Z,29.23
2019-06-27T11:43:40.944Z,29.12
2019-06-27T11:44:40.935Z,29.33
2019-06-27T11:45:40.928Z,29.30
2019-06-27T11:46:40.939Z,29.37
2019-06-27T11:47:40.903Z,29.71
2019-06-27T11:48:40.892Z,30.02
2019-06-27T11:49:40.884Z,29.95
2019-06-27T11:50:40.882Z,29.63
2019-06-27T11:51:40.889Z,29.70
2019-06-27T11:52:40.854Z,29.11
2019-06-27T11:53:40.856Z,29.04
2019-06-27T11:54:40.835Z,29.31
2019-06-27T11:55:40.820Z,29.64
2019-06-27T11:56:40.845Z,30.04
2019-06-27T11:57:40.801Z,30.31
2019-06-27T11:58:40.799Z,30.04
2019-06-27T11:59:40.779Z,30.11
2019-06-27T12:00:40.770Z,30.00
2019-06-27T12:01:40.786Z,29.78
2019-06-27T12:02:40.758Z,29.90
2019-06-27T12:03:49.217Z,30.27
2019-06-27T12:04:41.727Z,30.39
2019-06-27T12:05:40.717Z,30.43
2019-06-27T12:06:40.734Z,30.00
2019-06-27T12:07:40.698Z,29.85
2019-06-27T12:08:40.686Z,29.55
2019-06-27T12:09:40.687Z,29.28
2019-06-27T12:10:40.667Z,29.39
2019-06-27T12:11:40.680Z,29.90
2019-06-27T12:12:40.648Z,30.46
2019-06-27T12:13:40.642Z,30.95
2019-06-27T12:14:40.711Z,30.73
2019-06-27T12:15:40.613Z,30.19
2019-06-27T12:16:40.627Z,29.63
2019-06-27T12:17:40.592Z,29.52
2019-06-27T12:18:40.582Z,29.65
2019-06-27T12:19:40.577Z,29.95
2019-06-27T12:20:40.562Z,30.39
2019-06-27T12:21:40.583Z,30.91
2019-06-27T12:22:40.547Z,31.32
2019-06-27T12:23:40.537Z,31.26
2019-06-27T12:24:40.520Z,31.41
2019-06-27T12:25:40.511Z,31.36
2019-06-27T12:26:40.524Z,30.67
2019-06-27T12:27:40.492Z,30.69
2019-06-27T12:28:40.479Z,30.35
2019-06-27T12:29:40.469Z,30.62
2019-06-27T12:30:40.460Z,30.31
2019-06-27T12:31:40.472Z,29.86
2019-06-27T12:32:50.933Z,29.79
2019-06-27T12:33:41.427Z,30.01
2019-06-27T12:34:40.478Z,29.70
2019-06-27T12:35:40.413Z,29.92
2019-06-27T12:36:40.424Z,30.42
2019-06-27T12:37:40.385Z,30.49
2019-06-27T12:38:40.377Z,30.69
2019-06-27T12:39:40.366Z,30.64
2019-06-27T12:40:40.357Z,30.84
2019-06-27T12:41:40.384Z,30.80
2019-06-27T12:42:40.341Z,30.76
2019-06-27T12:43:40.326Z,30.70
2019-06-27T12:44:40.317Z,30.79
2019-06-27T12:45:40.304Z,30.82
2019-06-27T12:46:40.321Z,31.02
2019-06-27T12:47:40.285Z,31.09
2019-06-27T12:48:40.273Z,30.84
2019-06-27T12:49:56.987Z,30.88
2019-06-27T12:50:41.255Z,31.31
2019-06-27T12:51:40.270Z,31.14
2019-06-27T12:52:40.232Z,31.25